sensor_id;sensor_type;location;lat;lon;timestamp;P1;durP1;ratioP1;P2;durP2;ratioP2
52368;SDS011;38298;50.346;3.526;2023-07-09T00:01:50;4.85;;;2.72;;
52368;SDS011;38298;50.346;3.526;2023-07-09T00:04:16;9.38;;;2.88;;
52368;SDS011;38298;50.346;3.526;2023-07-09T00:06:42;5.75;;;2.38;;
52368;SDS011;38298;50.346;3.526;2023-07-09T00:09:12;5.35;;;2.67;;
52368;SDS011;38298;50.346;3.526;2023-07-09T00:11:40;6.00;;;2.35;;
52368;SDS011;38298;50.346;3.526;2023-07-09T00:14:06;6.15;;;2.15;;
52368;SDS011;38298;50.346;3.526;2023-07-09T00:16:32;5.72;;;2.33;;
52368;SDS011;38298;50.346;3.526;2023-07-09T00:18:58;6.03;;;2.42;;
52368;SDS011;38298;50.346;3.526;2023-07-09T00:21:24;6.32;;;2.33;;
52368;SDS011;38298;50.346;3.526;2023-07-09T00:23:50;4.88;;;2.30;;
52368;SDS011;38298;50.346;3.526;2023-07-09T00:26:16;5.07;;;2.33;;
52368;SDS011;38298;50.346;3.526;2023-07-09T00:28:45;6.55;;;2.42;;
52368;SDS011;38298;50.346;3.526;2023-07-09T00:31:12;3.53;;;2.13;;
52368;SDS011;38298;50.346;3.526;2023-07-09T00:33:41;4.55;;;2.72;;
52368;SDS011;38298;50.346;3.526;2023-07-09T00:36:10;3.90;;;2.08;;
52368;SDS011;38298;50.346;3.526;2023-07-09T00:38:39;6.07;;;2.55;;
52368;SDS011;38298;50.346;3.526;2023-07-09T00:41:23;5.53;;;2.70;;
52368;SDS011;38298;50.346;3.526;2023-07-09T00:43:50;7.32;;;2.85;;
52368;SDS011;38298;50.346;3.526;2023-07-09T00:48:48;4.57;;;2.67;;
52368;SDS011;38298;50.346;3.526;2023-07-09T00:51:16;7.72;;;3.47;;
52368;SDS011;38298;50.346;3.526;2023-07-09T00:53:45;6.45;;;3.08;;
52368;SDS011;38298;50.346;3.526;2023-07-09T00:56:13;7.45;;;3.33;;
52368;SDS011;38298;50.346;3.526;2023-07-09T00:58:40;7.72;;;3.20;;
52368;SDS011;38298;50.346;3.526;2023-07-09T01:01:09;6.93;;;3.03;;
52368;SDS011;38298;50.346;3.526;2023-07-09T01:03:50;6.13;;;2.60;;
52368;SDS011;38298;50.346;3.526;2023-07-09T01:06:19;6.82;;;3.10;;
52368;SDS011;38298;50.346;3.526;2023-07-09T01:08:46;10.60;;;3.00;;
52368;SDS011;38298;50.346;3.526;2023-07-09T01:11:19;5.72;;;3.00;;
52368;SDS011;38298;50.346;3.526;2023-07-09T01:13:52;5.28;;;2.72;;
52368;SDS011;38298;50.346;3.526;2023-07-09T01:16:20;6.60;;;2.75;;
52368;SDS011;38298;50.346;3.526;2023-07-09T01:18:49;5.82;;;2.60;;
52368;SDS011;38298;50.346;3.526;2023-07-09T01:21:15;4.85;;;2.88;;
52368;SDS011;38298;50.346;3.526;2023-07-09T01:23:42;7.45;;;3.08;;
52368;SDS011;38298;50.346;3.526;2023-07-09T01:26:10;10.05;;;3.60;;
52368;SDS011;38298;50.346;3.526;2023-07-09T01:28:36;7.57;;;2.80;;
52368;SDS011;38298;50.346;3.526;2023-07-09T01:31:03;4.13;;;2.90;;
52368;SDS011;38298;50.346;3.526;2023-07-09T01:33:29;5.68;;;3.10;;
52368;SDS011;38298;50.346;3.526;2023-07-09T01:35:56;9.32;;;3.08;;
52368;SDS011;38298;50.346;3.526;2023-07-09T01:38:25;4.60;;;2.90;;
52368;SDS011;38298;50.346;3.526;2023-07-09T01:40:55;5.65;;;3.30;;
52368;SDS011;38298;50.346;3.526;2023-07-09T01:43:21;6.57;;;3.17;;
52368;SDS011;38298;50.346;3.526;2023-07-09T01:45:47;9.13;;;3.25;;
52368;SDS011;38298;50.346;3.526;2023-07-09T01:48:15;8.57;;;2.88;;
52368;SDS011;38298;50.346;3.526;2023-07-09T01:50:42;10.65;;;3.70;;
52368;SDS011;38298;50.346;3.526;2023-07-09T01:53:12;6.93;;;3.00;;
52368;SDS011;38298;50.346;3.526;2023-07-09T01:55:38;7.20;;;3.25;;
52368;SDS011;38298;50.346;3.526;2023-07-09T01:58:04;6.70;;;3.17;;
52368;SDS011;38298;50.346;3.526;2023-07-09T02:00:32;5.10;;;2.75;;
52368;SDS011;38298;50.346;3.526;2023-07-09T02:03:00;5.22;;;2.88;;
52368;SDS011;38298;50.346;3.526;2023-07-09T02:05:27;5.20;;;3.08;;
52368;SDS011;38298;50.346;3.526;2023-07-09T02:07:53;5.70;;;2.95;;
52368;SDS011;38298;50.346;3.526;2023-07-09T02:10:20;6.55;;;3.47;;
52368;SDS011;38298;50.346;3.526;2023-07-09T02:12:46;5.85;;;3.92;;
52368;SDS011;38298;50.346;3.526;2023-07-09T02:15:12;8.15;;;3.45;;
52368;SDS011;38298;50.346;3.526;2023-07-09T02:17:38;6.85;;;3.60;;
52368;SDS011;38298;50.346;3.526;2023-07-09T02:20:04;8.50;;;4.00;;
52368;SDS011;38298;50.346;3.526;2023-07-09T02:22:32;9.80;;;3.92;;
52368;SDS011;38298;50.346;3.526;2023-07-09T02:24:58;8.35;;;3.38;;
52368;SDS011;38298;50.346;3.526;2023-07-09T02:27:25;10.10;;;3.88;;
52368;SDS011;38298;50.346;3.526;2023-07-09T02:29:50;5.43;;;3.53;;
52368;SDS011;38298;50.346;3.526;2023-07-09T02:32:18;5.85;;;3.78;;
52368;SDS011;38298;50.346;3.526;2023-07-09T02:34:44;6.53;;;3.97;;
52368;SDS011;38298;50.346;3.526;2023-07-09T02:37:14;9.13;;;4.32;;
52368;SDS011;38298;50.346;3.526;2023-07-09T02:39:40;7.47;;;3.67;;
52368;SDS011;38298;50.346;3.526;2023-07-09T02:42:08;10.93;;;4.68;;
52368;SDS011;38298;50.346;3.526;2023-07-09T02:44:35;7.60;;;4.57;;
52368;SDS011;38298;50.346;3.526;2023-07-09T02:47:01;8.75;;;5.40;;
52368;SDS011;38298;50.346;3.526;2023-07-09T02:49:27;11.02;;;6.15;;
52368;SDS011;38298;50.346;3.526;2023-07-09T02:51:52;12.65;;;6.95;;
52368;SDS011;38298;50.346;3.526;2023-07-09T02:54:18;17.15;;;7.40;;
52368;SDS011;38298;50.346;3.526;2023-07-09T02:56:44;13.23;;;7.07;;
52368;SDS011;38298;50.346;3.526;2023-07-09T02:59:11;14.68;;;8.00;;
52368;SDS011;38298;50.346;3.526;2023-07-09T03:01:37;18.95;;;9.18;;
52368;SDS011;38298;50.346;3.526;2023-07-09T03:04:03;18.33;;;10.18;;
52368;SDS011;38298;50.346;3.526;2023-07-09T03:06:30;20.77;;;10.98;;
52368;SDS011;38298;50.346;3.526;2023-07-09T03:08:59;21.48;;;9.85;;
52368;SDS011;38298;50.346;3.526;2023-07-09T03:11:27;23.65;;;12.32;;
52368;SDS011;38298;50.346;3.526;2023-07-09T03:13:53;25.88;;;13.63;;
52368;SDS011;38298;50.346;3.526;2023-07-09T03:16:19;26.85;;;14.10;;
52368;SDS011;38298;50.346;3.526;2023-07-09T03:18:45;29.65;;;15.25;;
52368;SDS011;38298;50.346;3.526;2023-07-09T03:21:11;26.65;;;14.75;;
52368;SDS011;38298;50.346;3.526;2023-07-09T03:23:37;31.60;;;16.35;;
52368;SDS011;38298;50.346;3.526;2023-07-09T03:26:03;35.65;;;16.67;;
52368;SDS011;38298;50.346;3.526;2023-07-09T03:28:30;32.78;;;17.02;;
52368;SDS011;38298;50.346;3.526;2023-07-09T03:30:56;29.75;;;17.08;;
52368;SDS011;38298;50.346;3.526;2023-07-09T03:33:22;29.20;;;15.85;;
52368;SDS011;38298;50.346;3.526;2023-07-09T03:35:48;31.55;;;17.58;;
52368;SDS011;38298;50.346;3.526;2023-07-09T03:38:14;31.98;;;17.33;;
52368;SDS011;38298;50.346;3.526;2023-07-09T03:40:40;32.08;;;16.20;;
52368;SDS011;38298;50.346;3.526;2023-07-09T03:43:06;32.60;;;17.17;;
52368;SDS011;38298;50.346;3.526;2023-07-09T03:45:34;32.55;;;17.25;;
52368;SDS011;38298;50.346;3.526;2023-07-09T03:48:00;33.65;;;16.95;;
52368;SDS011;38298;50.346;3.526;2023-07-09T03:50:26;32.47;;;15.23;;
52368;SDS011;38298;50.346;3.526;2023-07-09T03:52:52;31.67;;;16.67;;
52368;SDS011;38298;50.346;3.526;2023-07-09T03:55:18;30.25;;;16.60;;
52368;SDS011;38298;50.346;3.526;2023-07-09T03:57:44;31.90;;;16.90;;
52368;SDS011;38298;50.346;3.526;2023-07-09T04:00:11;32.03;;;16.27;;
52368;SDS011;38298;50.346;3.526;2023-07-09T04:02:40;33.72;;;17.10;;
52368;SDS011;38298;50.346;3.526;2023-07-09T04:05:08;34.10;;;16.48;;
52368;SDS011;38298;50.346;3.526;2023-07-09T04:07:35;34.15;;;16.25;;
52368;SDS011;38298;50.346;3.526;2023-07-09T04:10:01;36.45;;;16.48;;
52368;SDS011;38298;50.346;3.526;2023-07-09T04:12:27;32.60;;;16.10;;
52368;SDS011;38298;50.346;3.526;2023-07-09T04:14:53;31.95;;;16.85;;
52368;SDS011;38298;50.346;3.526;2023-07-09T04:17:19;36.08;;;16.63;;
52368;SDS011;38298;50.346;3.526;2023-07-09T04:19:46;32.33;;;17.02;;
52368;SDS011;38298;50.346;3.526;2023-07-09T04:22:13;32.65;;;16.65;;
52368;SDS011;38298;50.346;3.526;2023-07-09T04:24:39;34.50;;;16.52;;
52368;SDS011;38298;50.346;3.526;2023-07-09T04:27:05;32.20;;;16.13;;
52368;SDS011;38298;50.346;3.526;2023-07-09T04:29:31;34.35;;;15.95;;
52368;SDS011;38298;50.346;3.526;2023-07-09T04:32:04;32.40;;;15.85;;
52368;SDS011;38298;50.346;3.526;2023-07-09T04:34:30;35.10;;;15.50;;
52368;SDS011;38298;50.346;3.526;2023-07-09T04:36:57;29.95;;;15.20;;
52368;SDS011;38298;50.346;3.526;2023-07-09T04:39:23;30.42;;;15.52;;
52368;SDS011;38298;50.346;3.526;2023-07-09T04:41:48;28.30;;;14.43;;
52368;SDS011;38298;50.346;3.526;2023-07-09T04:44:15;32.40;;;14.68;;
52368;SDS011;38298;50.346;3.526;2023-07-09T04:46:41;30.23;;;15.35;;
52368;SDS011;38298;50.346;3.526;2023-07-09T04:49:07;31.00;;;14.93;;
52368;SDS011;38298;50.346;3.526;2023-07-09T04:51:33;27.45;;;14.23;;
52368;SDS011;38298;50.346;3.526;2023-07-09T04:53:59;32.65;;;15.07;;
52368;SDS011;38298;50.346;3.526;2023-07-09T04:56:29;34.53;;;14.73;;
52368;SDS011;38298;50.346;3.526;2023-07-09T04:58:55;27.13;;;13.73;;
52368;SDS011;38298;50.346;3.526;2023-07-09T05:01:21;24.10;;;12.65;;
52368;SDS011;38298;50.346;3.526;2023-07-09T05:03:47;24.75;;;13.00;;
52368;SDS011;38298;50.346;3.526;2023-07-09T05:06:13;24.80;;;12.75;;
52368;SDS011;38298;50.346;3.526;2023-07-09T05:08:40;29.38;;;12.75;;
52368;SDS011;38298;50.346;3.526;2023-07-09T05:11:07;27.15;;;12.07;;
52368;SDS011;38298;50.346;3.526;2023-07-09T05:13:33;24.10;;;11.73;;
52368;SDS011;38298;50.346;3.526;2023-07-09T05:15:59;25.85;;;13.35;;
52368;SDS011;38298;50.346;3.526;2023-07-09T05:18:25;24.45;;;12.48;;
52368;SDS011;38298;50.346;3.526;2023-07-09T05:20:51;25.63;;;13.35;;
52368;SDS011;38298;50.346;3.526;2023-07-09T05:23:17;24.30;;;12.63;;
52368;SDS011;38298;50.346;3.526;2023-07-09T05:25:43;23.15;;;12.25;;
52368;SDS011;38298;50.346;3.526;2023-07-09T05:28:09;19.75;;;11.23;;
52368;SDS011;38298;50.346;3.526;2023-07-09T05:30:35;28.58;;;13.68;;
52368;SDS011;38298;50.346;3.526;2023-07-09T05:33:01;27.33;;;12.32;;
52368;SDS011;38298;50.346;3.526;2023-07-09T05:35:27;31.50;;;12.80;;
52368;SDS011;38298;50.346;3.526;2023-07-09T05:37:54;27.77;;;12.55;;
52368;SDS011;38298;50.346;3.526;2023-07-09T05:40:20;27.50;;;12.98;;
52368;SDS011;38298;50.346;3.526;2023-07-09T05:42:47;27.17;;;13.25;;
52368;SDS011;38298;50.346;3.526;2023-07-09T05:45:14;27.52;;;13.25;;
52368;SDS011;38298;50.346;3.526;2023-07-09T05:47:40;25.73;;;12.27;;
52368;SDS011;38298;50.346;3.526;2023-07-09T05:50:06;26.02;;;12.30;;
52368;SDS011;38298;50.346;3.526;2023-07-09T05:52:32;24.60;;;11.68;;
52368;SDS011;38298;50.346;3.526;2023-07-09T05:54:59;21.10;;;11.07;;
52368;SDS011;38298;50.346;3.526;2023-07-09T05:57:25;21.30;;;11.65;;
52368;SDS011;38298;50.346;3.526;2023-07-09T05:59:51;21.95;;;10.88;;
52368;SDS011;38298;50.346;3.526;2023-07-09T06:02:19;24.42;;;11.18;;
52368;SDS011;38298;50.346;3.526;2023-07-09T06:04:45;27.92;;;10.75;;
52368;SDS011;38298;50.346;3.526;2023-07-09T06:07:11;23.90;;;10.93;;
52368;SDS011;38298;50.346;3.526;2023-07-09T06:09:41;21.07;;;10.60;;
52368;SDS011;38298;50.346;3.526;2023-07-09T06:12:07;24.55;;;10.18;;
52368;SDS011;38298;50.346;3.526;2023-07-09T06:14:34;23.70;;;10.23;;
52368;SDS011;38298;50.346;3.526;2023-07-09T06:17:00;21.13;;;9.77;;
52368;SDS011;38298;50.346;3.526;2023-07-09T06:19:26;21.13;;;9.38;;
52368;SDS011;38298;50.346;3.526;2023-07-09T06:21:52;21.27;;;9.27;;
52368;SDS011;38298;50.346;3.526;2023-07-09T06:24:18;16.17;;;8.40;;
52368;SDS011;38298;50.346;3.526;2023-07-09T06:26:44;16.33;;;7.78;;
52368;SDS011;38298;50.346;3.526;2023-07-09T06:29:10;15.88;;;6.70;;
52368;SDS011;38298;50.346;3.526;2023-07-09T06:31:36;14.35;;;6.45;;
52368;SDS011;38298;50.346;3.526;2023-07-09T06:34:05;13.38;;;6.35;;
52368;SDS011;38298;50.346;3.526;2023-07-09T06:36:32;13.02;;;6.43;;
52368;SDS011;38298;50.346;3.526;2023-07-09T06:38:58;13.38;;;6.07;;
52368;SDS011;38298;50.346;3.526;2023-07-09T06:41:24;14.43;;;6.07;;
52368;SDS011;38298;50.346;3.526;2023-07-09T06:43:50;13.45;;;6.32;;
52368;SDS011;38298;50.346;3.526;2023-07-09T06:46:18;12.05;;;6.03;;
52368;SDS011;38298;50.346;3.526;2023-07-09T06:48:44;12.50;;;5.43;;
52368;SDS011;38298;50.346;3.526;2023-07-09T06:51:10;13.02;;;5.78;;
52368;SDS011;38298;50.346;3.526;2023-07-09T06:53:36;13.70;;;5.90;;
52368;SDS011;38298;50.346;3.526;2023-07-09T06:56:02;14.52;;;6.28;;
52368;SDS011;38298;50.346;3.526;2023-07-09T06:58:29;9.73;;;5.28;;
52368;SDS011;38298;50.346;3.526;2023-07-09T07:01:02;16.33;;;5.93;;
52368;SDS011;38298;50.346;3.526;2023-07-09T07:03:28;14.05;;;6.00;;
52368;SDS011;38298;50.346;3.526;2023-07-09T07:05:55;12.10;;;5.85;;
52368;SDS011;38298;50.346;3.526;2023-07-09T07:08:22;13.40;;;6.30;;
52368;SDS011;38298;50.346;3.526;2023-07-09T07:10:49;11.98;;;6.10;;
52368;SDS011;38298;50.346;3.526;2023-07-09T07:13:15;10.77;;;5.68;;
52368;SDS011;38298;50.346;3.526;2023-07-09T07:15:47;13.40;;;5.55;;
52368;SDS011;38298;50.346;3.526;2023-07-09T07:18:16;11.73;;;5.85;;
52368;SDS011;38298;50.346;3.526;2023-07-09T07:20:44;9.77;;;5.80;;
52368;SDS011;38298;50.346;3.526;2023-07-09T07:23:10;12.45;;;5.22;;
52368;SDS011;38298;50.346;3.526;2023-07-09T07:25:36;9.23;;;4.82;;
52368;SDS011;38298;50.346;3.526;2023-07-09T07:28:02;10.90;;;5.63;;
52368;SDS011;38298;50.346;3.526;2023-07-09T07:30:28;10.70;;;5.43;;
52368;SDS011;38298;50.346;3.526;2023-07-09T07:32:54;13.85;;;5.00;;
52368;SDS011;38298;50.346;3.526;2023-07-09T07:35:20;10.13;;;4.72;;
52368;SDS011;38298;50.346;3.526;2023-07-09T07:37:46;14.10;;;4.95;;
52368;SDS011;38298;50.346;3.526;2023-07-09T07:40:12;9.40;;;4.63;;
52368;SDS011;38298;50.346;3.526;2023-07-09T07:42:38;12.88;;;4.88;;
52368;SDS011;38298;50.346;3.526;2023-07-09T07:45:04;10.88;;;4.57;;
52368;SDS011;38298;50.346;3.526;2023-07-09T07:47:32;6.68;;;4.07;;
52368;SDS011;38298;50.346;3.526;2023-07-09T07:49:58;10.93;;;4.22;;
52368;SDS011;38298;50.346;3.526;2023-07-09T07:52:24;7.57;;;3.75;;
52368;SDS011;38298;50.346;3.526;2023-07-09T07:54:51;9.48;;;4.20;;
52368;SDS011;38298;50.346;3.526;2023-07-09T07:57:17;11.10;;;4.07;;
52368;SDS011;38298;50.346;3.526;2023-07-09T07:59:43;9.48;;;3.90;;
52368;SDS011;38298;50.346;3.526;2023-07-09T08:02:12;6.30;;;4.10;;
52368;SDS011;38298;50.346;3.526;2023-07-09T08:04:38;8.13;;;4.32;;
52368;SDS011;38298;50.346;3.526;2023-07-09T08:07:05;8.05;;;3.40;;
52368;SDS011;38298;50.346;3.526;2023-07-09T08:09:32;7.75;;;3.83;;
52368;SDS011;38298;50.346;3.526;2023-07-09T08:11:58;6.05;;;3.67;;
52368;SDS011;38298;50.346;3.526;2023-07-09T08:14:24;10.45;;;3.35;;
52368;SDS011;38298;50.346;3.526;2023-07-09T08:16:50;7.13;;;3.55;;
52368;SDS011;38298;50.346;3.526;2023-07-09T08:19:18;6.55;;;3.67;;
52368;SDS011;38298;50.346;3.526;2023-07-09T08:21:44;4.93;;;2.85;;
52368;SDS011;38298;50.346;3.526;2023-07-09T08:24:10;11.20;;;4.20;;
52368;SDS011;38298;50.346;3.526;2023-07-09T08:26:36;8.70;;;3.47;;
52368;SDS011;38298;50.346;3.526;2023-07-09T08:29:03;8.10;;;3.20;;
52368;SDS011;38298;50.346;3.526;2023-07-09T08:31:30;7.05;;;3.17;;
52368;SDS011;38298;50.346;3.526;2023-07-09T08:33:56;15.00;;;4.47;;
52368;SDS011;38298;50.346;3.526;2023-07-09T08:36:22;7.40;;;3.35;;
52368;SDS011;38298;50.346;3.526;2023-07-09T08:38:48;6.82;;;2.95;;
52368;SDS011;38298;50.346;3.526;2023-07-09T08:43:56;6.40;;;2.53;;
52368;SDS011;38298;50.346;3.526;2023-07-09T08:46:41;4.97;;;3.03;;
52368;SDS011;38298;50.346;3.526;2023-07-09T08:49:14;6.70;;;2.75;;
52368;SDS011;38298;50.346;3.526;2023-07-09T08:51:41;5.03;;;2.63;;
52368;SDS011;38298;50.346;3.526;2023-07-09T08:54:24;5.75;;;3.03;;
52368;SDS011;38298;50.346;3.526;2023-07-09T08:56:50;6.30;;;2.55;;
52368;SDS011;38298;50.346;3.526;2023-07-09T08:59:17;6.35;;;2.55;;
52368;SDS011;38298;50.346;3.526;2023-07-09T09:01:51;4.80;;;2.63;;
52368;SDS011;38298;50.346;3.526;2023-07-09T09:04:31;5.45;;;2.33;;
52368;SDS011;38298;50.346;3.526;2023-07-09T09:09:57;7.05;;;3.28;;
52368;SDS011;38298;50.346;3.526;2023-07-09T09:12:27;6.05;;;2.92;;
52368;SDS011;38298;50.346;3.526;2023-07-09T09:14:57;7.25;;;2.45;;
52368;SDS011;38298;50.346;3.526;2023-07-09T09:17:23;7.40;;;2.33;;
52368;SDS011;38298;50.346;3.526;2023-07-09T09:19:54;5.60;;;3.00;;
52368;SDS011;38298;50.346;3.526;2023-07-09T09:22:22;7.20;;;2.38;;
52368;SDS011;38298;50.346;3.526;2023-07-09T09:27:33;6.50;;;2.80;;
52368;SDS011;38298;50.346;3.526;2023-07-09T09:29:59;5.03;;;2.25;;
52368;SDS011;38298;50.346;3.526;2023-07-09T09:32:26;11.02;;;2.53;;
52368;SDS011;38298;50.346;3.526;2023-07-09T09:34:52;5.88;;;2.45;;
52368;SDS011;38298;50.346;3.526;2023-07-09T09:37:26;4.18;;;2.35;;
52368;SDS011;38298;50.346;3.526;2023-07-09T09:39:52;5.68;;;2.58;;
52368;SDS011;38298;50.346;3.526;2023-07-09T09:42:19;9.65;;;2.58;;
52368;SDS011;38298;50.346;3.526;2023-07-09T09:44:45;4.32;;;2.40;;
52368;SDS011;38298;50.346;3.526;2023-07-09T09:47:11;4.22;;;2.47;;
52368;SDS011;38298;50.346;3.526;2023-07-09T09:49:42;4.30;;;2.20;;
52368;SDS011;38298;50.346;3.526;2023-07-09T09:52:15;5.05;;;2.30;;
52368;SDS011;38298;50.346;3.526;2023-07-09T09:54:56;5.13;;;2.40;;
52368;SDS011;38298;50.346;3.526;2023-07-09T09:57:27;4.07;;;2.10;;
52368;SDS011;38298;50.346;3.526;2023-07-09T09:59:54;5.63;;;2.30;;
52368;SDS011;38298;50.346;3.526;2023-07-09T10:02:24;3.45;;;2.00;;
52368;SDS011;38298;50.346;3.526;2023-07-09T10:04:51;5.05;;;2.53;;
52368;SDS011;38298;50.346;3.526;2023-07-09T10:07:26;4.78;;;2.20;;
52368;SDS011;38298;50.346;3.526;2023-07-09T10:09:54;5.00;;;2.40;;
52368;SDS011;38298;50.346;3.526;2023-07-09T10:17:53;4.20;;;2.00;;
52368;SDS011;38298;50.346;3.526;2023-07-09T10:23:01;6.88;;;2.90;;
52368;SDS011;38298;50.346;3.526;2023-07-09T10:25:48;4.18;;;2.58;;
52368;SDS011;38298;50.346;3.526;2023-07-09T10:33:40;11.48;;;5.22;;
52368;SDS011;38298;50.346;3.526;2023-07-09T10:36:30;6.20;;;2.70;;
52368;SDS011;38298;50.346;3.526;2023-07-09T10:39:05;9.05;;;3.80;;
52368;SDS011;38298;50.346;3.526;2023-07-09T10:41:33;5.40;;;3.30;;
52368;SDS011;38298;50.346;3.526;2023-07-09T10:44:06;4.63;;;2.88;;
52368;SDS011;38298;50.346;3.526;2023-07-09T10:46:37;4.45;;;2.17;;
52368;SDS011;38298;50.346;3.526;2023-07-09T10:49:03;5.88;;;3.00;;
52368;SDS011;38298;50.346;3.526;2023-07-09T10:56:38;6.38;;;2.30;;
52368;SDS011;38298;50.346;3.526;2023-07-09T10:59:20;4.05;;;2.35;;
52368;SDS011;38298;50.346;3.526;2023-07-09T11:01:49;8.43;;;2.67;;
52368;SDS011;38298;50.346;3.526;2023-07-09T11:07:04;4.93;;;2.28;;
52368;SDS011;38298;50.346;3.526;2023-07-09T11:09:36;7.10;;;2.42;;
52368;SDS011;38298;50.346;3.526;2023-07-09T11:12:13;5.80;;;2.45;;
52368;SDS011;38298;50.346;3.526;2023-07-09T11:14:42;5.90;;;2.40;;
52368;SDS011;38298;50.346;3.526;2023-07-09T11:17:16;4.97;;;2.20;;
52368;SDS011;38298;50.346;3.526;2023-07-09T11:19:44;3.92;;;2.45;;
52368;SDS011;38298;50.346;3.526;2023-07-09T11:22:22;4.20;;;2.60;;
52368;SDS011;38298;50.346;3.526;2023-07-09T11:24:50;4.22;;;2.38;;
52368;SDS011;38298;50.346;3.526;2023-07-09T11:27:23;7.32;;;2.85;;
52368;SDS011;38298;50.346;3.526;2023-07-09T11:29:57;6.45;;;2.67;;
52368;SDS011;38298;50.346;3.526;2023-07-09T11:32:24;5.50;;;2.97;;
52368;SDS011;38298;50.346;3.526;2023-07-09T11:34:50;7.38;;;2.83;;
52368;SDS011;38298;50.346;3.526;2023-07-09T11:37:16;6.78;;;2.90;;
52368;SDS011;38298;50.346;3.526;2023-07-09T11:39:44;9.00;;;3.58;;
52368;SDS011;38298;50.346;3.526;2023-07-09T11:44:48;8.57;;;3.35;;
52368;SDS011;38298;50.346;3.526;2023-07-09T11:52:17;16.70;;;3.53;;
52368;SDS011;38298;50.346;3.526;2023-07-09T11:54:45;8.25;;;3.08;;
52368;SDS011;38298;50.346;3.526;2023-07-09T11:57:12;8.25;;;2.90;;
52368;SDS011;38298;50.346;3.526;2023-07-09T12:02:15;6.75;;;3.42;;
52368;SDS011;38298;50.346;3.526;2023-07-09T12:04:42;8.43;;;3.50;;
52368;SDS011;38298;50.346;3.526;2023-07-09T12:07:09;6.80;;;3.30;;
52368;SDS011;38298;50.346;3.526;2023-07-09T12:12:04;6.97;;;3.35;;
52368;SDS011;38298;50.346;3.526;2023-07-09T12:14:30;7.03;;;3.15;;
52368;SDS011;38298;50.346;3.526;2023-07-09T12:16:56;6.70;;;3.85;;
52368;SDS011;38298;50.346;3.526;2023-07-09T12:19:23;7.82;;;3.65;;
52368;SDS011;38298;50.346;3.526;2023-07-09T12:21:51;6.15;;;3.03;;
52368;SDS011;38298;50.346;3.526;2023-07-09T12:24:24;7.63;;;4.63;;
52368;SDS011;38298;50.346;3.526;2023-07-09T12:27:00;9.98;;;3.92;;
52368;SDS011;38298;50.346;3.526;2023-07-09T12:29:34;5.22;;;4.13;;
52368;SDS011;38298;50.346;3.526;2023-07-09T12:32:09;6.57;;;3.92;;
52368;SDS011;38298;50.346;3.526;2023-07-09T12:34:36;6.35;;;4.47;;
52368;SDS011;38298;50.346;3.526;2023-07-09T12:37:01;6.50;;;3.47;;
52368;SDS011;38298;50.346;3.526;2023-07-09T12:39:29;7.82;;;3.38;;
52368;SDS011;38298;50.346;3.526;2023-07-09T12:41:56;8.27;;;3.25;;
52368;SDS011;38298;50.346;3.526;2023-07-09T12:44:23;6.47;;;3.72;;
52368;SDS011;38298;50.346;3.526;2023-07-09T12:46:49;7.55;;;3.97;;
52368;SDS011;38298;50.346;3.526;2023-07-09T12:49:29;4.80;;;3.47;;
52368;SDS011;38298;50.346;3.526;2023-07-09T12:52:01;6.40;;;3.75;;
52368;SDS011;38298;50.346;3.526;2023-07-09T12:54:30;7.70;;;4.28;;
52368;SDS011;38298;50.346;3.526;2023-07-09T12:56:58;7.82;;;4.07;;
52368;SDS011;38298;50.346;3.526;2023-07-09T12:59:28;8.30;;;3.60;;
52368;SDS011;38298;50.346;3.526;2023-07-09T13:02:03;7.15;;;3.80;;
52368;SDS011;38298;50.346;3.526;2023-07-09T13:04:34;6.78;;;3.80;;
52368;SDS011;38298;50.346;3.526;2023-07-09T13:07:01;7.03;;;4.40;;
52368;SDS011;38298;50.346;3.526;2023-07-09T13:09:27;10.32;;;4.10;;
52368;SDS011;38298;50.346;3.526;2023-07-09T13:11:54;6.40;;;4.00;;
52368;SDS011;38298;50.346;3.526;2023-07-09T13:14:21;12.23;;;4.05;;
52368;SDS011;38298;50.346;3.526;2023-07-09T13:16:48;10.10;;;3.88;;
52368;SDS011;38298;50.346;3.526;2023-07-09T13:19:15;7.28;;;4.03;;
52368;SDS011;38298;50.346;3.526;2023-07-09T13:21:41;8.45;;;4.15;;
52368;SDS011;38298;50.346;3.526;2023-07-09T13:24:20;7.90;;;4.13;;
52368;SDS011;38298;50.346;3.526;2023-07-09T13:26:47;8.90;;;3.88;;
52368;SDS011;38298;50.346;3.526;2023-07-09T13:29:14;8.43;;;4.00;;
52368;SDS011;38298;50.346;3.526;2023-07-09T13:31:42;6.82;;;3.55;;
52368;SDS011;38298;50.346;3.526;2023-07-09T13:34:13;7.65;;;3.88;;
52368;SDS011;38298;50.346;3.526;2023-07-09T13:36:42;8.48;;;3.90;;
52368;SDS011;38298;50.346;3.526;2023-07-09T13:39:12;8.95;;;3.53;;
52368;SDS011;38298;50.346;3.526;2023-07-09T13:41:39;7.05;;;3.42;;
52368;SDS011;38298;50.346;3.526;2023-07-09T13:44:10;10.77;;;3.20;;
52368;SDS011;38298;50.346;3.526;2023-07-09T13:46:37;6.95;;;3.50;;
52368;SDS011;38298;50.346;3.526;2023-07-09T13:49:04;7.80;;;3.13;;
52368;SDS011;38298;50.346;3.526;2023-07-09T13:51:30;7.57;;;3.60;;
52368;SDS011;38298;50.346;3.526;2023-07-09T13:53:57;5.82;;;3.63;;
52368;SDS011;38298;50.346;3.526;2023-07-09T13:56:24;7.40;;;3.78;;
52368;SDS011;38298;50.346;3.526;2023-07-09T13:58:50;4.75;;;3.40;;
52368;SDS011;38298;50.346;3.526;2023-07-09T14:01:22;7.03;;;3.45;;
52368;SDS011;38298;50.346;3.526;2023-07-09T14:03:48;6.88;;;3.97;;
52368;SDS011;38298;50.346;3.526;2023-07-09T14:06:15;10.65;;;4.47;;
52368;SDS011;38298;50.346;3.526;2023-07-09T14:08:41;7.20;;;3.97;;
52368;SDS011;38298;50.346;3.526;2023-07-09T14:11:11;4.60;;;3.15;;
52368;SDS011;38298;50.346;3.526;2023-07-09T14:13:37;7.25;;;3.83;;
52368;SDS011;38298;50.346;3.526;2023-07-09T14:16:04;10.23;;;4.18;;
52368;SDS011;38298;50.346;3.526;2023-07-09T14:18:30;9.18;;;4.28;;
52368;SDS011;38298;50.346;3.526;2023-07-09T14:20:56;7.05;;;3.60;;
52368;SDS011;38298;50.346;3.526;2023-07-09T14:23:22;6.03;;;3.63;;
52368;SDS011;38298;50.346;3.526;2023-07-09T14:25:48;7.97;;;3.90;;
52368;SDS011;38298;50.346;3.526;2023-07-09T14:28:15;5.95;;;3.72;;
52368;SDS011;38298;50.346;3.526;2023-07-09T14:30:42;7.63;;;4.53;;
52368;SDS011;38298;50.346;3.526;2023-07-09T14:33:17;6.47;;;4.38;;
52368;SDS011;38298;50.346;3.526;2023-07-09T14:35:44;7.93;;;4.57;;
52368;SDS011;38298;50.346;3.526;2023-07-09T14:38:20;7.60;;;3.97;;
52368;SDS011;38298;50.346;3.526;2023-07-09T14:40:47;12.60;;;4.32;;
52368;SDS011;38298;50.346;3.526;2023-07-09T14:43:13;7.90;;;4.43;;
52368;SDS011;38298;50.346;3.526;2023-07-09T14:45:39;11.80;;;3.80;;
52368;SDS011;38298;50.346;3.526;2023-07-09T14:48:12;7.88;;;4.72;;
52368;SDS011;38298;50.346;3.526;2023-07-09T14:50:38;8.23;;;4.22;;
52368;SDS011;38298;50.346;3.526;2023-07-09T14:53:09;7.65;;;4.20;;
52368;SDS011;38298;50.346;3.526;2023-07-09T14:55:36;6.38;;;3.92;;
52368;SDS011;38298;50.346;3.526;2023-07-09T14:58:04;8.55;;;4.35;;
52368;SDS011;38298;50.346;3.526;2023-07-09T15:00:33;8.90;;;4.47;;
52368;SDS011;38298;50.346;3.526;2023-07-09T15:03:01;8.85;;;4.30;;
52368;SDS011;38298;50.346;3.526;2023-07-09T15:05:27;6.75;;;3.95;;
52368;SDS011;38298;50.346;3.526;2023-07-09T15:07:55;11.50;;;4.45;;
52368;SDS011;38298;50.346;3.526;2023-07-09T15:10:23;6.38;;;3.80;;
52368;SDS011;38298;50.346;3.526;2023-07-09T15:12:49;7.97;;;4.00;;
52368;SDS011;38298;50.346;3.526;2023-07-09T15:17:48;11.52;;;3.88;;
52368;SDS011;38298;50.346;3.526;2023-07-09T15:20:15;10.13;;;4.85;;
52368;SDS011;38298;50.346;3.526;2023-07-09T15:22:41;12.77;;;5.75;;
52368;SDS011;38298;50.346;3.526;2023-07-09T15:25:11;14.10;;;5.80;;
52368;SDS011;38298;50.346;3.526;2023-07-09T15:27:37;13.35;;;6.05;;
52368;SDS011;38298;50.346;3.526;2023-07-09T15:32:39;12.27;;;6.50;;